sensor_id;sensor_type;location;lat;lon;timestamp;pressure;altitude;pressure_sealevel;temperature;humidity
4133;BME280;2080;51.038;7.008;2023-02-18T00:00:16;76467.97;;;-142.53;100.00
4133;BME280;2080;51.038;7.008;2023-02-18T00:02:45;76464.06;;;-142.53;100.00
4133;BME280;2080;51.038;7.008;2023-02-18T00:05:12;76466.03;;;-142.53;100.00
4133;BME280;2080;51.038;7.008;2023-02-18T00:07:38;76471.84;;;-142.53;100.00
4133;BME280;2080;51.038;7.008;2023-02-18T00:10:09;76454.38;;;-142.53;100.00
4133;BME280;2080;51.038;7.008;2023-02-18T00:12:35;76456.31;;;-142.53;100.00
4133;BME280;2080;51.038;7.008;2023-02-18T00:15:00;76452.41;;;-142.53;100.00
4133;BME280;2080;51.038;7.008;2023-02-18T00:17:28;76467.97;;;-142.53;100.00
4133;BME280;2080;51.038;7.008;2023-02-18T00:19:54;76464.06;;;-142.53;100.00
4133;BME280;2080;51.038;7.008;2023-02-18T00:22:19;76466.03;;;-142.53;100.00
4133;BME280;2080;51.038;7.008;2023-02-18T00:24:47;76481.56;;;-142.53;100.00
4133;BME280;2080;51.038;7.008;2023-02-18T00:27:13;76493.22;;;-142.53;100.00
4133;BME280;2080;51.038;7.008;2023-02-18T00:29:38;76485.44;;;-142.53;100.00
4133;BME280;2080;51.038;7.008;2023-02-18T00:32:04;76460.19;;;-142.53;100.00
4133;BME280;2080;51.038;7.008;2023-02-18T00:34:29;76466.03;;;-142.53;100.00
4133;BME280;2080;51.038;7.008;2023-02-18T00:36:55;76479.63;;;-142.53;100.00
4133;BME280;2080;51.038;7.008;2023-02-18T00:39:20;76444.66;;;-142.53;100.00
4133;BME280;2080;51.038;7.008;2023-02-18T00:41:45;76444.66;;;-142.53;100.00
4133;BME280;2080;51.038;7.008;2023-02-18T00:44:11;76429.13;;;-142.53;100.00
4133;BME280;2080;51.038;7.008;2023-02-18T00:46:37;76425.22;;;-142.53;100.00
4133;BME280;2080;51.038;7.008;2023-02-18T00:49:06;76429.13;;;-142.53;100.00
4133;BME280;2080;51.038;7.008;2023-02-18T00:51:34;76436.88;;;-142.53;100.00
4133;BME280;2080;51.038;7.008;2023-02-18T00:54:00;76448.53;;;-142.53;100.00
4133;BME280;2080;51.038;7.008;2023-02-18T00:56:25;76436.88;;;-142.53;100.00
4133;BME280;2080;51.038;7.008;2023-02-18T00:58:53;76442.72;;;-142.53;100.00
4133;BME280;2080;51.038;7.008;2023-02-18T01:01:21;76448.53;;;-142.53;100.00
4133;BME280;2080;51.038;7.008;2023-02-18T01:03:48;76444.66;;;-142.53;100.00
4133;BME280;2080;51.038;7.008;2023-02-18T01:06:14;76444.66;;;-142.53;100.00
4133;BME280;2080;51.038;7.008;2023-02-18T01:08:41;76429.13;;;-142.53;100.00
4133;BME280;2080;51.038;7.008;2023-02-18T01:11:08;76407.75;;;-142.53;100.00
4133;BME280;2080;51.038;7.008;2023-02-18T01:13:34;76417.47;;;-142.53;100.00
4133;BME280;2080;51.038;7.008;2023-02-18T01:16:06;76409.69;;;-142.53;100.00
4133;BME280;2080;51.038;7.008;2023-02-18T01:18:32;76433.00;;;-142.53;100.00
4133;BME280;2080;51.038;7.008;2023-02-18T01:20:58;76429.13;;;-142.53;100.00
4133;BME280;2080;51.038;7.008;2023-02-18T01:23:23;76413.56;;;-142.53;100.00
4133;BME280;2080;51.038;7.008;2023-02-18T01:25:49;76401.91;;;-142.53;100.00
4133;BME280;2080;51.038;7.008;2023-02-18T01:28:15;76429.13;;;-142.53;100.00
4133;BME280;2080;51.038;7.008;2023-02-18T01:30:45;76429.13;;;-142.53;100.00
4133;BME280;2080;51.038;7.008;2023-02-18T01:33:10;76419.41;;;-142.53;100.00
4133;BME280;2080;51.038;7.008;2023-02-18T01:35:38;76405.81;;;-142.53;100.00
4133;BME280;2080;51.038;7.008;2023-02-18T01:38:06;76401.91;;;-142.53;100.00
4133;BME280;2080;51.038;7.008;2023-02-18T01:40:34;76409.69;;;-142.53;100.00
4133;BME280;2080;51.038;7.008;2023-02-18T01:43:00;76398.03;;;-142.53;100.00
4133;BME280;2080;51.038;7.008;2023-02-18T01:47:58;76405.81;;;-142.53;100.00
4133;BME280;2080;51.038;7.008;2023-02-18T01:50:27;76401.91;;;-142.53;100.00
4133;BME280;2080;51.038;7.008;2023-02-18T01:52:53;76401.91;;;-142.53;100.00
4133;BME280;2080;51.038;7.008;2023-02-18T01:55:18;76401.91;;;-142.53;100.00
4133;BME280;2080;51.038;7.008;2023-02-18T01:57:46;76401.91;;;-142.53;100.00
4133;BME280;2080;51.038;7.008;2023-02-18T02:00:14;76382.50;;;-142.53;100.00
4133;BME280;2080;51.038;7.008;2023-02-18T02:02:43;76390.28;;;-142.53;100.00
4133;BME280;2080;51.038;7.008;2023-02-18T02:05:13;76392.22;;;-142.53;100.00
4133;BME280;2080;51.038;7.008;2023-02-18T02:07:42;76394.16;;;-142.53;100.00
4133;BME280;2080;51.038;7.008;2023-02-18T02:10:08;76374.72;;;-142.53;100.00
4133;BME280;2080;51.038;7.008;2023-02-18T02:35:08;76394.16;;;-142.53;100.00
4133;BME280;2080;51.038;7.008;2023-02-18T02:40:37;76394.16;;;-142.53;100.00
4133;BME280;2080;51.038;7.008;2023-02-18T02:48:41;76386.38;;;-142.53;100.00
4133;BME280;2080;51.038;7.008;2023-02-18T02:53:53;76384.44;;;-142.53;100.00
4133;BME280;2080;51.038;7.008;2023-02-18T02:56:22;76363.06;;;-142.53;100.00
4133;BME280;2080;51.038;7.008;2023-02-18T02:59:02;76390.28;;;-142.53;100.00
4133;BME280;2080;51.038;7.008;2023-02-18T03:10:00;76363.06;;;-142.53;100.00
4133;BME280;2080;51.038;7.008;2023-02-18T03:15:22;76351.41;;;-142.53;100.00
4133;BME280;2080;51.038;7.008;2023-02-18T03:18:02;76316.47;;;-142.53;100.00
4133;BME280;2080;51.038;7.008;2023-02-18T03:20:35;76343.66;;;-142.53;100.00
4133;BME280;2080;51.038;7.008;2023-02-18T03:23:06;76339.75;;;-142.53;100.00
4133;BME280;2080;51.038;7.008;2023-02-18T03:25:35;76343.66;;;-142.53;100.00
4133;BME280;2080;51.038;7.008;2023-02-18T03:28:07;76343.66;;;-142.53;100.00
4133;BME280;2080;51.038;7.008;2023-02-18T03:30:43;76328.13;;;-142.53;100.00
4133;BME280;2080;51.038;7.008;2023-02-18T03:33:14;76297.03;;;-142.53;100.00
4133;BME280;2080;51.038;7.008;2023-02-18T03:35:42;76326.16;;;-142.53;100.00
4133;BME280;2080;51.038;7.008;2023-02-18T03:38:12;76308.69;;;-142.53;100.00
4133;BME280;2080;51.038;7.008;2023-02-18T03:40:39;76316.47;;;-142.53;100.00
4133;BME280;2080;51.038;7.008;2023-02-18T03:43:07;76333.94;;;-142.53;100.00
4133;BME280;2080;51.038;7.008;2023-02-18T03:45:33;76335.88;;;-142.53;100.00
4133;BME280;2080;51.038;7.008;2023-02-18T03:47:58;76339.75;;;-142.53;100.00
4133;BME280;2080;51.038;7.008;2023-02-18T03:50:23;76351.41;;;-142.53;100.00
4133;BME280;2080;51.038;7.008;2023-02-18T03:52:51;76366.97;;;-142.53;100.00
4133;BME280;2080;51.038;7.008;2023-02-18T03:55:19;76390.28;;;-142.53;100.00
4133;BME280;2080;51.038;7.008;2023-02-18T03:57:44;76392.22;;;-142.53;100.00
4133;BME280;2080;51.038;7.008;2023-02-18T04:00:16;76394.16;;;-142.53;100.00
4133;BME280;2080;51.038;7.008;2023-02-18T04:02:41;76394.16;;;-142.53;100.00
4133;BME280;2080;51.038;7.008;2023-02-18T04:05:07;76388.31;;;-142.53;100.00
4133;BME280;2080;51.038;7.008;2023-02-18T04:07:33;76396.09;;;-142.53;100.00
4133;BME280;2080;51.038;7.008;2023-02-18T04:10:07;76390.28;;;-142.53;100.00
4133;BME280;2080;51.038;7.008;2023-02-18T04:12:35;76394.16;;;-142.53;100.00
4133;BME280;2080;51.038;7.008;2023-02-18T04:15:03;76394.16;;;-142.53;100.00
4133;BME280;2080;51.038;7.008;2023-02-18T04:17:31;76399.97;;;-142.53;100.00
4133;BME280;2080;51.038;7.008;2023-02-18T04:19:57;76398.03;;;-142.53;100.00
4133;BME280;2080;51.038;7.008;2023-02-18T04:22:22;76398.03;;;-142.53;100.00
4133;BME280;2080;51.038;7.008;2023-02-18T04:24:47;76398.03;;;-142.53;100.00
4133;BME280;2080;51.038;7.008;2023-02-18T04:27:13;76378.63;;;-142.53;100.00
4133;BME280;2080;51.038;7.008;2023-02-18T04:29:38;76361.13;;;-142.53;100.00
4133;BME280;2080;51.038;7.008;2023-02-18T04:32:06;76374.72;;;-142.53;100.00
4133;BME280;2080;51.038;7.008;2023-02-18T04:34:33;76363.06;;;-142.53;100.00
4133;BME280;2080;51.038;7.008;2023-02-18T04:36:59;76365.00;;;-142.53;100.00
4133;BME280;2080;51.038;7.008;2023-02-18T04:39:24;76380.56;;;-142.53;100.00
4133;BME280;2080;51.038;7.008;2023-02-18T04:41:52;76390.28;;;-142.53;100.00
4133;BME280;2080;51.038;7.008;2023-02-18T04:44:17;76378.63;;;-142.53;100.00
4133;BME280;2080;51.038;7.008;2023-02-18T04:46:42;76386.38;;;-142.53;100.00
4133;BME280;2080;51.038;7.008;2023-02-18T04:49:08;76374.72;;;-142.53;100.00
4133;BME280;2080;51.038;7.008;2023-02-18T04:51:36;76388.31;;;-142.53;100.00
4133;BME280;2080;51.038;7.008;2023-02-18T04:54:05;76374.72;;;-142.53;100.00
4133;BME280;2080;51.038;7.008;2023-02-18T04:56:33;76390.28;;;-142.53;100.00
4133;BME280;2080;51.038;7.008;2023-02-18T04:58:59;76398.03;;;-142.53;100.00
4133;BME280;2080;51.038;7.008;2023-02-18T05:01:24;76372.78;;;-142.53;100.00
4133;BME280;2080;51.038;7.008;2023-02-18T05:03:49;76386.38;;;-142.53;100.00
4133;BME280;2080;51.038;7.008;2023-02-18T05:06:17;76372.78;;;-142.53;100.00
4133;BME280;2080;51.038;7.008;2023-02-18T05:08:45;76363.06;;;-142.53;100.00
4133;BME280;2080;51.038;7.008;2023-02-18T05:11:10;76366.97;;;-142.53;100.00
4133;BME280;2080;51.038;7.008;2023-02-18T05:13:35;76368.91;;;-142.53;100.00
4133;BME280;2080;51.038;7.008;2023-02-18T05:16:04;76376.66;;;-142.53;100.00
4133;BME280;2080;51.038;7.008;2023-02-18T05:18:32;76366.97;;;-142.53;100.00
4133;BME280;2080;51.038;7.008;2023-02-18T05:20:59;76374.72;;;-142.53;100.00
4133;BME280;2080;51.038;7.008;2023-02-18T05:23:29;76374.72;;;-142.53;100.00
4133;BME280;2080;51.038;7.008;2023-02-18T05:25:55;76374.72;;;-142.53;100.00
4133;BME280;2080;51.038;7.008;2023-02-18T05:28:20;76378.63;;;-142.53;100.00
4133;BME280;2080;51.038;7.008;2023-02-18T05:30:48;76384.44;;;-142.53;100.00
4133;BME280;2080;51.038;7.008;2023-02-18T05:33:14;76386.38;;;-142.53;100.00
4133;BME280;2080;51.038;7.008;2023-02-18T05:35:39;76370.84;;;-142.53;100.00
4133;BME280;2080;51.038;7.008;2023-02-18T05:38:05;76359.19;;;-142.53;100.00
4133;BME280;2080;51.038;7.008;2023-02-18T05:40:30;76351.41;;;-142.53;100.00
4133;BME280;2080;51.038;7.008;2023-02-18T05:42:55;76332.00;;;-142.53;100.00
4133;BME280;2080;51.038;7.008;2023-02-18T05:45:21;76355.31;;;-142.53;100.00
4133;BME280;2080;51.038;7.008;2023-02-18T05:47:46;76343.66;;;-142.53;100.00
4133;BME280;2080;51.038;7.008;2023-02-18T05:50:12;76347.53;;;-142.53;100.00
4133;BME280;2080;51.038;7.008;2023-02-18T05:52:37;76339.75;;;-142.53;100.00
4133;BME280;2080;51.038;7.008;2023-02-18T05:55:03;76347.53;;;-142.53;100.00
4133;BME280;2080;51.038;7.008;2023-02-18T05:57:29;76359.19;;;-142.53;100.00
4133;BME280;2080;51.038;7.008;2023-02-18T05:59:55;76335.88;;;-142.53;100.00
4133;BME280;2080;51.038;7.008;2023-02-18T06:02:20;76347.53;;;-142.53;100.00
4133;BME280;2080;51.038;7.008;2023-02-18T06:04:45;76332.00;;;-142.53;100.00
4133;BME280;2080;51.038;7.008;2023-02-18T06:07:18;76333.94;;;-142.53;100.00
4133;BME280;2080;51.038;7.008;2023-02-18T06:09:45;76345.59;;;-142.53;100.00
4133;BME280;2080;51.038;7.008;2023-02-18T06:12:13;76347.53;;;-142.53;100.00
4133;BME280;2080;51.038;7.008;2023-02-18T06:14:38;76343.66;;;-142.53;100.00
4133;BME280;2080;51.038;7.008;2023-02-18T06:17:10;76363.06;;;-142.53;100.00
4133;BME280;2080;51.038;7.008;2023-02-18T06:19:38;76355.31;;;-142.53;100.00
4133;BME280;2080;51.038;7.008;2023-02-18T06:22:04;76339.75;;;-142.53;100.00
4133;BME280;2080;51.038;7.008;2023-02-18T06:24:30;76359.19;;;-142.53;100.00
4133;BME280;2080;51.038;7.008;2023-02-18T06:26:57;76355.31;;;-142.53;100.00
4133;BME280;2080;51.038;7.008;2023-02-18T06:29:23;76363.06;;;-142.53;100.00
4133;BME280;2080;51.038;7.008;2023-02-18T06:31:51;76359.19;;;-142.53;100.00
4133;BME280;2080;51.038;7.008;2023-02-18T06:34:16;76351.41;;;-142.53;100.00
4133;BME280;2080;51.038;7.008;2023-02-18T06:36:41;76355.31;;;-142.53;100.00
4133;BME280;2080;51.038;7.008;2023-02-18T06:39:09;76378.63;;;-142.53;100.00
4133;BME280;2080;51.038;7.008;2023-02-18T06:41:34;76355.31;;;-142.53;100.00
4133;BME280;2080;51.038;7.008;2023-02-18T06:44:00;76347.53;;;-142.53;100.00
4133;BME280;2080;51.038;7.008;2023-02-18T06:46:25;76355.31;;;-142.53;100.00
4133;BME280;2080;51.038;7.008;2023-02-18T06:48:50;76343.66;;;-142.53;100.00
4133;BME280;2080;51.038;7.008;2023-02-18T06:51:16;76335.88;;;-142.53;100.00
4133;BME280;2080;51.038;7.008;2023-02-18T06:53:43;76359.19;;;-142.53;100.00
4133;BME280;2080;51.038;7.008;2023-02-18T06:56:09;76349.47;;;-142.53;100.00
4133;BME280;2080;51.038;7.008;2023-02-18T06:58:37;76347.53;;;-142.53;100.00
4133;BME280;2080;51.038;7.008;2023-02-18T07:01:03;76343.66;;;-142.53;100.00
4133;BME280;2080;51.038;7.008;2023-02-18T07:03:29;76328.13;;;-142.53;100.00
4133;BME280;2080;51.038;7.008;2023-02-18T07:05:54;76326.16;;;-142.53;100.00
4133;BME280;2080;51.038;7.008;2023-02-18T07:08:22;76332.00;;;-142.53;100.00
4133;BME280;2080;51.038;7.008;2023-02-18T07:10:47;76324.22;;;-142.53;100.00
4133;BME280;2080;51.038;7.008;2023-02-18T07:13:13;76326.16;;;-142.53;100.00
4133;BME280;2080;51.038;7.008;2023-02-18T07:15:39;76324.22;;;-142.53;100.00
4133;BME280;2080;51.038;7.008;2023-02-18T07:18:04;76316.47;;;-142.53;100.00
4133;BME280;2080;51.038;7.008;2023-02-18T07:20:30;76332.00;;;-142.53;100.00
4133;BME280;2080;51.038;7.008;2023-02-18T07:22:57;76339.75;;;-142.53;100.00
4133;BME280;2080;51.038;7.008;2023-02-18T07:25:25;76328.13;;;-142.53;100.00
4133;BME280;2080;51.038;7.008;2023-02-18T07:27:53;76332.00;;;-142.53;100.00
4133;BME280;2080;51.038;7.008;2023-02-18T07:30:19;76324.22;;;-142.53;100.00
4133;BME280;2080;51.038;7.008;2023-02-18T07:32:45;76308.69;;;-142.53;100.00
4133;BME280;2080;51.038;7.008;2023-02-18T07:35:13;76285.38;;;-142.53;100.00
4133;BME280;2080;51.038;7.008;2023-02-18T07:37:42;76281.50;;;-142.53;100.00
4133;BME280;2080;51.038;7.008;2023-02-18T07:40:12;76260.13;;;-142.53;100.00
4133;BME280;2080;51.038;7.008;2023-02-18T07:42:38;76265.97;;;-142.53;100.00
4133;BME280;2080;51.038;7.008;2023-02-18T07:45:06;76242.66;;;-142.53;100.00
4133;BME280;2080;51.038;7.008;2023-02-18T07:47:34;76238.78;;;-142.53;100.00
4133;BME280;2080;51.038;7.008;2023-02-18T07:49:59;76265.97;;;-142.53;100.00
4133;BME280;2080;51.038;7.008;2023-02-18T07:52:25;76277.63;;;-142.53;100.00
4133;BME280;2080;51.038;7.008;2023-02-18T07:54:50;76265.97;;;-142.53;100.00
4133;BME280;2080;51.038;7.008;2023-02-18T07:57:15;76279.56;;;-142.53;100.00
4133;BME280;2080;51.038;7.008;2023-02-18T07:59:41;76285.38;;;-142.53;100.00
4133;BME280;2080;51.038;7.008;2023-02-18T08:02:08;76289.28;;;-142.53;100.00
4133;BME280;2080;51.038;7.008;2023-02-18T08:04:39;76314.50;;;-142.53;100.00
4133;BME280;2080;51.038;7.008;2023-02-18T08:07:10;76320.34;;;-142.53;100.00
4133;BME280;2080;51.038;7.008;2023-02-18T08:09:36;76312.56;;;-142.53;100.00
4133;BME280;2080;51.038;7.008;2023-02-18T08:12:01;76339.75;;;-142.53;100.00
4133;BME280;2080;51.038;7.008;2023-02-18T08:14:27;76343.66;;;-142.53;100.00
4133;BME280;2080;51.038;7.008;2023-02-18T08:16:52;76347.53;;;-142.53;100.00
4133;BME280;2080;51.038;7.008;2023-02-18T08:19:20;76335.88;;;-142.53;100.00
4133;BME280;2080;51.038;7.008;2023-02-18T08:21:47;76332.00;;;-142.53;100.00
4133;BME280;2080;51.038;7.008;2023-02-18T08:24:13;76335.88;;;-142.53;100.00
4133;BME280;2080;51.038;7.008;2023-02-18T08:26:38;76347.53;;;-142.53;100.00
4133;BME280;2080;51.038;7.008;2023-02-18T08:29:03;76359.19;;;-142.53;100.00
4133;BME280;2080;51.038;7.008;2023-02-18T08:31:30;76388.31;;;-142.53;100.00
4133;BME280;2080;51.038;7.008;2023-02-18T08:33:57;76366.97;;;-142.53;100.00
4133;BME280;2080;51.038;7.008;2023-02-18T08:36:23;76386.38;;;-142.53;100.00
4133;BME280;2080;51.038;7.008;2023-02-18T08:38:48;76405.81;;;-142.53;100.00
4133;BME280;2080;51.038;7.008;2023-02-18T08:41:14;76394.16;;;-142.53;100.00
4133;BME280;2080;51.038;7.008;2023-02-18T08:43:41;76392.22;;;-142.53;100.00
4133;BME280;2080;51.038;7.008;2023-02-18T08:46:06;76390.28;;;-142.53;100.00
4133;BME280;2080;51.038;7.008;2023-02-18T08:48:31;76394.16;;;-142.53;100.00
4133;BME280;2080;51.038;7.008;2023-02-18T08:51:10;76382.50;;;-142.53;100.00
4133;BME280;2080;51.038;7.008;2023-02-18T08:53:35;76401.91;;;-142.53;100.00
4133;BME280;2080;51.038;7.008;2023-02-18T08:56:06;76401.91;;;-142.53;100.00
4133;BME280;2080;51.038;7.008;2023-02-18T08:58:31;76394.16;;;-142.53;100.00
4133;BME280;2080;51.038;7.008;2023-02-18T09:01:00;76403.88;;;-142.53;100.00
4133;BME280;2080;51.038;7.008;2023-02-18T09:03:28;76398.03;;;-142.53;100.00
4133;BME280;2080;51.038;7.008;2023-02-18T09:05:53;76365.00;;;-142.53;100.00
4133;BME280;2080;51.038;7.008;2023-02-18T09:08:19;76351.41;;;-142.53;100.00
4133;BME280;2080;51.038;7.008;2023-02-18T09:10:46;76328.13;;;-142.53;100.00
4133;BME280;2080;51.038;7.008;2023-02-18T09:13:12;76324.22;;;-142.53;100.00
4133;BME280;2080;51.038;7.008;2023-02-18T09:15:37;76326.16;;;-142.53;100.00
4133;BME280;2080;51.038;7.008;2023-02-18T09:18:02;76312.56;;;-142.53;100.00
4133;BME280;2080;51.038;7.008;2023-02-18T09:20:30;76302.88;;;-142.53;100.00
4133;BME280;2080;51.038;7.008;2023-02-18T09:22:58;76324.22;;;-142.53;100.00
4133;BME280;2080;51.038;7.008;2023-02-18T09:25:24;76308.69;;;-142.53;100.00
4133;BME280;2080;51.038;7.008;2023-02-18T09:27:52;76320.34;;;-142.53;100.00
4133;BME280;2080;51.038;7.008;2023-02-18T09:30:22;76312.56;;;-142.53;100.00
4133;BME280;2080;51.038;7.008;2023-02-18T09:32:47;76316.47;;;-142.53;100.00
4133;BME280;2080;51.038;7.008;2023-02-18T09:35:13;76302.88;;;-142.53;100.00
4133;BME280;2080;51.038;7.008;2023-02-18T09:37:38;76310.63;;;-142.53;100.00
4133;BME280;2080;51.038;7.008;2023-02-18T09:40:05;76324.22;;;-142.53;100.00
4133;BME280;2080;51.038;7.008;2023-02-18T09:42:35;76312.56;;;-142.53;100.00
4133;BME280;2080;51.038;7.008;2023-02-18T09:45:04;76322.28;;;-142.53;100.00
4133;BME280;2080;51.038;7.008;2023-02-18T09:47:37;76312.56;;;-142.53;100.00
4133;BME280;2080;51.038;7.008;2023-02-18T09:52:46;76320.34;;;-142.53;100.00
4133;BME280;2080;51.038;7.008;2023-02-18T09:57:52;76277.63;;;-142.53;100.00
4133;BME280;2080;51.038;7.008;2023-02-18T10:03:03;76285.38;;;-142.53;100.00
4133;BME280;2080;51.038;7.008;2023-02-18T10:05:31;76287.31;;;-142.53;100.00
4133;BME280;2080;51.038;7.008;2023-02-18T10:08:05;76302.88;;;-142.53;100.00
4133;BME280;2080;51.038;7.008;2023-02-18T10:10:44;76304.81;;;-142.53;100.00
4133;BME280;2080;51.038;7.008;2023-02-18T10:13:23;76308.69;;;-142.53;100.00
4133;BME280;2080;51.038;7.008;2023-02-18T10:15:50;76293.16;;;-142.53;100.00
4133;BME280;2080;51.038;7.008;2023-02-18T10:18:41;76289.28;;;-142.53;100.00
4133;BME280;2080;51.038;7.008;2023-02-18T10:21:20;76281.50;;;-142.53;100.00
4133;BME280;2080;51.038;7.008;2023-02-18T10:24:09;76250.41;;;-142.53;100.00
4133;BME280;2080;51.038;7.008;2023-02-18T10:26:41;76275.66;;;-142.53;100.00
4133;BME280;2080;51.038;7.008;2023-02-18T10:29:15;76283.44;;;-142.53;100.00
4133;BME280;2080;51.038;7.008;2023-02-18T10:31:44;76300.91;;;-142.53;100.00
4133;BME280;2080;51.038;7.008;2023-02-18T10:34:38;76289.28;;;-142.53;100.00
4133;BME280;2080;51.038;7.008;2023-02-18T10:40:05;76269.84;;;-142.53;100.00
4133;BME280;2080;51.038;7.008;2023-02-18T10:51:33;76277.63;;;-142.53;100.00
4133;BME280;2080;51.038;7.008;2023-02-18T10:53:59;76265.97;;;-142.53;100.00
4133;BME280;2080;51.038;7.008;2023-02-18T10:56:48;76258.19;;;-142.53;100.00
4133;BME280;2080;51.038;7.008;2023-02-18T10:59:32;76273.72;;;-142.53;100.00
4133;BME280;2080;51.038;7.008;2023-02-18T11:04:34;76320.34;;;-142.53;100.00
4133;BME280;2080;51.038;7.008;2023-02-18T11:07:09;76382.50;;;-142.53;100.00
4133;BME280;2080;51.038;7.008;2023-02-18T11:09:57;76345.59;;;-142.53;100.00
4133;BME280;2080;51.038;7.008;2023-02-18T11:12:34;76353.38;;;-142.53;100.00
4133;BME280;2080;51.038;7.008;2023-02-18T11:17:37;76337.81;;;-142.53;100.00
4133;BME280;2080;51.038;7.008;2023-02-18T11:22:44;76328.13;;;-142.53;100.00
4133;BME280;2080;51.038;7.008;2023-02-18T11:25:21;76308.69;;;-142.53;100.00
4133;BME280;2080;51.038;7.008;2023-02-18T11:27:56;76308.69;;;-142.53;100.00
4133;BME280;2080;51.038;7.008;2023-02-18T11:30:25;76324.22;;;-142.53;100.00
4133;BME280;2080;51.038;7.008;2023-02-18T11:32:58;76339.75;;;-142.53;100.00
4133;BME280;2080;51.038;7.008;2023-02-18T11:35:27;76359.19;;;-142.53;100.00
4133;BME280;2080;51.038;7.008;2023-02-18T11:38:01;76363.06;;;-142.53;100.00
4133;BME280;2080;51.038;7.008;2023-02-18T11:40:30;76366.97;;;-142.53;100.00
4133;BME280;2080;51.038;7.008;2023-02-18T11:43:27;76376.66;;;-142.53;100.00
4133;BME280;2080;51.038;7.008;2023-02-18T11:46:21;76378.63;;;-142.53;100.00
4133;BME280;2080;51.038;7.008;2023-02-18T11:48:47;76355.31;;;-142.53;100.00
4133;BME280;2080;51.038;7.008;2023-02-18T11:51:23;76386.38;;;-142.53;100.00
4133;BME280;2080;51.038;7.008;2023-02-18T11:56:20;76351.41;;;-142.53;100.00
4133;BME280;2080;51.038;7.008;2023-02-18T11:58:47;76347.53;;;-142.53;100.00
4133;BME280;2080;51.038;7.008;2023-02-18T12:01:41;76365.00;;;-142.53;100.00
4133;BME280;2080;51.038;7.008;2023-02-18T12:04:11;76366.97;;;-142.53;100.00
4133;BME280;2080;51.038;7.008;2023-02-18T12:06:43;76343.66;;;-142.53;100.00
4133;BME280;2080;51.038;7.008;2023-02-18T12:11:52;76343.66;;;-142.53;100.00
4133;BME280;2080;51.038;7.008;2023-02-18T12:14:22;76343.66;;;-142.53;100.00
4133;BME280;2080;51.038;7.008;2023-02-18T12:22:41;76339.75;;;-142.53;100.00
4133;BME280;2080;51.038;7.008;2023-02-18T12:28:04;76347.53;;;-142.53;100.00
4133;BME280;2080;51.038;7.008;2023-02-18T12:31:01;76351.41;;;-142.53;100.00
4133;BME280;2080;51.038;7.008;2023-02-18T12:39:08;76343.66;;;-142.53;100.00
4133;BME280;2080;51.038;7.008;2023-02-18T13:03:31;76353.38;;;-142.53;100.00
4133;BME280;2080;51.038;7.008;2023-02-18T13:09:02;76328.13;;;-142.53;100.00
4133;BME280;2080;51.038;7.008;2023-02-18T13:14:24;76339.75;;;-142.53;100.00
4133;BME280;2080;51.038;7.008;2023-02-18T13:16:54;76351.41;;;-142.53;100.00
4133;BME280;2080;51.038;7.008;2023-02-18T13:19:25;76330.06;;;-142.53;100.00
4133;BME280;2080;51.038;7.008;2023-02-18T13:21:58;76345.59;;;-142.53;100.00
4133;BME280;2080;51.038;7.008;2023-02-18T13:24:40;76363.06;;;-142.53;100.00
4133;BME280;2080;51.038;7.008;2023-02-18T13:27:40;76320.34;;;-142.53;100.00
4133;BME280;2080;51.038;7.008;2023-02-18T13:35:39;76304.81;;;-142.53;100.00
4133;BME280;2080;51.038;7.008;2023-02-18T13:41:04;76269.84;;;-142.53;100.00
4133;BME280;2080;51.038;7.008;2023-02-18T13:43:32;76308.69;;;-142.53;100.00
4133;BME280;2080;51.038;7.008;2023-02-18T13:46:08;76308.69;;;-142.53;100.00
4133;BME280;2080;51.038;7.008;2023-02-18T13:49:11;76335.88;;;-142.53;100.00
4133;BME280;2080;51.038;7.008;2023-02-18T13:51:40;76339.75;;;-142.53;100.00
4133;BME280;2080;51.038;7.008;2023-02-18T13:56:41;76341.72;;;-142.53;100.00
4133;BME280;2080;51.038;7.008;2023-02-18T13:59:15;76332.00;;;-142.53;100.00
4133;BME280;2080;51.038;7.008;2023-02-18T14:01:50;76328.13;;;-142.53;100.00
4133;BME280;2080;51.038;7.008;2023-02-18T14:10:25;76326.16;;;-142.53;100.00
4133;BME280;2080;51.038;7.008;2023-02-18T14:20:48;76343.66;;;-142.53;100.00
4133;BME280;2080;51.038;7.008;2023-02-18T14:31:20;76335.88;;;-142.53;100.00
4133;BME280;2080;51.038;7.008;2023-02-18T14:34:04;76337.81;;;-142.53;100.00
4133;BME280;2080;51.038;7.008;2023-02-18T14:50:19;76316.47;;;-142.53;100.00
4133;BME280;2080;51.038;7.008;2023-02-18T14:52:52;76318.41;;;-142.53;100.00
4133;BME280;2080;51.038;7.008;2023-02-18T14:55:29;76320.34;;;-142.53;100.00
4133;BME280;2080;51.038;7.008;2023-02-18T14:58:01;76320.34;;;-142.53;100.00
4133;BME280;2080;51.038;7.008;2023-02-18T15:00:29;76320.34;;;-142.53;100.00
4133;BME280;2080;51.038;7.008;2023-02-18T15:02:59;76308.69;;;-142.53;100.00
4133;BME280;2080;51.038;7.008;2023-02-18T15:05:28;76316.47;;;-142.53;100.00
4133;BME280;2080;51.038;7.008;2023-02-18T15:10:28;76332.00;;;-142.53;100.00
4133;BME280;2080;51.038;7.008;2023-02-18T15:12:56;76316.47;;;-142.53;100.00
4133;BME280;2080;51.038;7.008;2023-02-18T15:15:23;76324.22;;;-142.53;100.00
4133;BME280;2080;51.038;7.008;2023-02-18T15:17:51;76328.13;;;-142.53;100.00
4133;BME280;2080;51.038;7.008;2023-02-18T15:20:19;76291.22;;;-142.53;100.00
4133;BME280;2080;51.038;7.008;2023-02-18T15:22:45;76312.56;;;-142.53;100.00
4133;BME280;2080;51.038;7.008;2023-02-18T15:25:13;76316.47;;;-142.53;100.00
4133;BME280;2080;51.038;7.008;2023-02-18T15:27:42;76316.47;;;-142.53;100.00
4133;BME280;2080;51.038;7.008;2023-02-18T15:30:29;76320.34;;;-142.53;100.00
4133;BME280;2080;51.038;7.008;2023-02-18T15:32:57;76316.47;;;-142.53;100.00
4133;BME280;2080;51.038;7.008;2023-02-18T15:35:26;76312.56;;;-142.53;100.00
4133;BME280;2080;51.038;7.008;2023-02-18T15:37:57;76328.13;;;-142.53;100.00
4133;BME280;2080;51.038;7.008;2023-02-18T15:40:26;76318.41;;;-142.53;100.00
4133;BME280;2080;51.038;7.008;2023-02-18T15:42:55;76320.34;;;-142.53;100.00
4133;BME280;2080;51.038;7.008;2023-02-18T15:45:30;76298.97;;;-142.53;100.00
4133;BME280;2080;51.038;7.008;2023-02-18T15:48:00;76291.22;;;-142.53;100.00
4133;BME280;2080;51.038;7.008;2023-02-18T15:50:34;76300.91;;;-142.53;100.00